createdAt,value
2022-09-04T00:04:59.914Z,8.90
2022-09-04T00:07:41.429Z,7.70
2022-09-04T00:13:40.350Z,7.60
2022-09-04T00:15:50.548Z,9.50
2022-09-04T00:17:35.429Z,9.40
2022-09-04T00:19:34.988Z,8.20
2022-09-04T00:21:33.209Z,9.30
2022-09-04T00:24:50.971Z,6.50
2022-09-04T00:26:47.669Z,9.80
2022-09-04T00:28:45.072Z,6.20
2022-09-04T00:30:48.437Z,7.60
2022-09-04T00:35:09.248Z,8.50
2022-09-04T00:37:17.909Z,9.80
2022-09-04T00:39:32.346Z,7.30
2022-09-04T00:41:33.090Z,8.40
2022-09-04T00:43:47.391Z,7.40
2022-09-04T00:47:19.409Z,7.30
2022-09-04T00:49:04.673Z,8.80
2022-09-04T00:51:06.150Z,6.30
2022-09-04T00:53:22.953Z,7.10
2022-09-04T00:55:04.030Z,8.10
2022-09-04T00:57:03.353Z,10.50
2022-09-04T00:58:54.590Z,10.60
2022-09-04T01:00:40.188Z,7.20
2022-09-04T01:02:24.896Z,6.80
2022-09-04T01:04:17.648Z,9.90
2022-09-04T01:08:43.049Z,7.00
2022-09-04T01:11:03.948Z,7.20
2022-09-04T01:12:47.009Z,7.40
2022-09-04T01:15:06.670Z,8.60
2022-09-04T01:19:53.210Z,9.20
2022-09-04T01:22:14.329Z,8.60
2022-09-04T01:24:30.131Z,8.40
2022-09-04T01:28:12.430Z,9.80
2022-09-04T01:29:53.189Z,9.20
2022-09-04T01:33:28.490Z,7.50
2022-09-04T01:35:36.673Z,8.20
2022-09-04T01:37:52.409Z,8.60
2022-09-04T01:39:24.991Z,9.00
2022-09-04T01:41:10.452Z,8.10
2022-09-04T01:43:08.872Z,8.60
2022-09-04T01:44:28.528Z,8.50
2022-09-04T01:46:05.391Z,8.40
2022-09-04T01:48:01.994Z,9.20
2022-09-04T01:49:37.451Z,8.20
2022-09-04T01:51:08.449Z,10.40
2022-09-04T01:53:00.149Z,12.00
2022-09-04T01:54:32.708Z,10.00
2022-09-04T01:56:18.011Z,10.00
2022-09-04T01:58:10.709Z,10.80
2022-09-04T02:00:07.710Z,11.70
2022-09-04T02:05:33.773Z,10.10
2022-09-04T02:07:37.369Z,9.80
2022-09-04T02:09:21.890Z,10.40
2022-09-04T02:11:08.349Z,10.80
2022-09-04T02:12:42.952Z,11.80
2022-09-04T02:14:37.730Z,7.80
2022-09-04T02:16:13.353Z,10.50
2022-09-04T02:17:51.968Z,9.80
2022-09-04T02:19:34.948Z,11.00
2022-09-04T02:21:49.448Z,11.00
2022-09-04T02:23:42.569Z,12.90
2022-09-04T02:25:32.549Z,9.30
2022-09-04T02:28:01.269Z,10.80
2022-09-04T02:32:14.508Z,9.80
2022-09-04T02:33:55.958Z,10.20
2022-09-04T02:35:33.772Z,12.40
2022-09-04T02:37:22.791Z,11.20
2022-09-04T02:41:20.491Z,10.90
2022-09-04T02:43:13.951Z,11.50
2022-09-04T02:45:23.912Z,10.60
2022-09-04T02:47:37.451Z,11.40
2022-09-04T02:52:19.309Z,9.50
2022-09-04T02:54:39.670Z,10.30
2022-09-04T02:56:16.351Z,11.40
2022-09-04T02:58:09.990Z,10.80
2022-09-04T02:59:52.729Z,11.20
2022-09-04T03:01:33.457Z,9.80
2022-09-04T03:03:02.068Z,12.50
2022-09-04T03:04:59.189Z,11.60
2022-09-04T03:06:56.451Z,14.10
2022-09-04T03:09:10.791Z,10.60
2022-09-04T03:13:03.471Z,8.90
2022-09-04T03:14:50.809Z,13.60
2022-09-04T03:16:51.591Z,11.00
2022-09-04T03:19:00.170Z,12.30
2022-09-04T03:22:36.995Z,12.40
2022-09-04T03:24:13.929Z,13.90
2022-09-04T03:26:19.292Z,10.20
2022-09-04T03:27:44.189Z,12.30
2022-09-04T03:29:26.770Z,9.60
2022-09-04T03:30:57.091Z,9.80
2022-09-04T03:32:50.450Z,10.80
2022-09-04T03:34:57.230Z,12.30
2022-09-04T03:36:41.192Z,10.70
2022-09-04T03:38:47.972Z,11.60
2022-09-04T03:40:35.509Z,11.40
2022-09-04T03:42:35.050Z,12.40
2022-09-04T03:44:24.832Z,12.10
2022-09-04T03:46:42.666Z,11.70
2022-09-04T03:48:44.509Z,10.80
2022-09-04T03:50:31.070Z,12.60
2022-09-04T03:54:56.510Z,10.20
2022-09-04T03:56:56.131Z,11.60
2022-09-04T03:58:52.889Z,13.10
2022-09-04T04:00:51.336Z,12.40
2022-09-04T04:05:19.249Z,13.70
2022-09-04T04:07:17.450Z,11.10
2022-09-04T04:09:36.669Z,11.50
2022-09-04T04:11:41.320Z,12.50
2022-09-04T04:16:41.046Z,16.90
2022-09-04T04:19:03.469Z,11.20
2022-09-04T04:21:02.271Z,13.30
2022-09-04T04:22:43.108Z,11.30
2022-09-04T04:24:50.610Z,10.60
2022-09-04T04:29:30.351Z,16.00
2022-09-04T04:31:39.348Z,9.30
2022-09-04T04:33:43.631Z,11.90
2022-09-04T04:37:43.333Z,13.00
2022-09-04T04:41:31.709Z,13.00
2022-09-04T04:43:29.310Z,11.90
2022-09-04T04:45:31.171Z,8.30
2022-09-04T04:47:30.048Z,10.20
2022-09-04T04:49:31.389Z,10.60
2022-09-04T04:54:09.920Z,11.60
2022-09-04T04:56:09.208Z,8.30
2022-09-04T04:58:03.089Z,10.50
2022-09-04T05:00:03.232Z,10.80
2022-09-04T05:02:04.099Z,10.40
2022-09-04T05:04:08.189Z,9.30
2022-09-04T05:06:14.549Z,9.50
2022-09-04T05:08:08.194Z,7.80
2022-09-04T05:09:25.053Z,9.70
2022-09-04T05:10:42.921Z,11.80
2022-09-04T05:12:14.078Z,10.80
2022-09-04T05:13:59.531Z,10.30
2022-09-04T05:15:53.211Z,10.30
2022-09-04T05:17:22.996Z,9.90
2022-09-04T05:19:06.891Z,10.60
2022-09-04T05:20:36.827Z,11.30
2022-09-04T05:21:45.143Z,11.60
2022-09-04T05:23:28.750Z,15.00
2022-09-04T05:24:43.485Z,11.60
2022-09-04T05:26:10.850Z,13.20
2022-09-04T05:27:42.096Z,10.90
2022-09-04T05:29:04.850Z,10.90
2022-09-04T05:30:45.559Z,9.50
2022-09-04T05:32:10.299Z,9.70
2022-09-04T05:33:39.134Z,10.80
2022-09-04T05:35:04.675Z,13.60
2022-09-04T05:36:28.478Z,12.20
2022-09-04T05:37:40.217Z,13.40
2022-09-04T05:39:06.489Z,12.10
2022-09-04T05:40:32.992Z,9.40
2022-09-04T05:42:06.425Z,11.10
2022-09-04T05:43:34.176Z,11.70
2022-09-04T05:45:21.259Z,12.60
2022-09-04T05:46:45.102Z,11.10
2022-09-04T05:48:17.834Z,11.70
2022-09-04T05:49:36.477Z,11.40
2022-09-04T05:50:53.237Z,14.90
2022-09-04T05:52:06.836Z,13.90
2022-09-04T05:53:49.900Z,11.50
2022-09-04T05:55:17.475Z,16.20
2022-09-04T05:56:31.118Z,18.50
2022-09-04T05:57:45.202Z,12.90
2022-09-04T05:59:44.129Z,11.60
2022-09-04T06:01:16.501Z,10.20
2022-09-04T06:02:33.566Z,10.50
2022-09-04T06:04:00.614Z,11.20
2022-09-04T06:05:20.690Z,12.60
2022-09-04T06:06:36.104Z,13.00
2022-09-04T06:07:55.088Z,12.70
2022-09-04T06:09:24.057Z,14.00
2022-09-04T06:10:53.994Z,10.50
2022-09-04T06:12:21.784Z,12.20
2022-09-04T06:13:51.458Z,11.10
2022-09-04T06:15:22.062Z,11.50
2022-09-04T06:16:47.076Z,9.90
2022-09-04T06:18:16.968Z,11.60
2022-09-04T06:19:42.436Z,9.90
2022-09-04T06:21:04.682Z,13.00
2022-09-04T06:22:26.650Z,15.40
2022-09-04T06:23:40.598Z,11.60
2022-09-04T06:25:10.758Z,9.00
2022-09-04T06:26:47.495Z,10.40
2022-09-04T06:28:31.280Z,10.20
2022-09-04T06:30:01.147Z,12.40
2022-09-04T06:31:48.557Z,9.80
2022-09-04T06:33:10.838Z,15.40
2022-09-04T06:34:40.990Z,14.10
2022-09-04T06:36:13.417Z,11.80
2022-09-04T06:37:54.102Z,9.30
2022-09-04T06:39:26.166Z,11.70
2022-09-04T06:41:01.640Z,11.60
2022-09-04T06:42:18.871Z,11.10
2022-09-04T06:43:31.792Z,10.60
2022-09-04T06:45:05.060Z,12.90
2022-09-04T06:46:41.409Z,13.30
2022-09-04T06:48:06.167Z,14.70
2022-09-04T06:49:24.480Z,14.50
2022-09-04T06:51:00.716Z,12.80
2022-09-04T06:52:32.634Z,13.40
2022-09-04T06:53:50.923Z,13.10
2022-09-04T06:55:01.675Z,11.90
2022-09-04T06:56:45.599Z,15.20
2022-09-04T06:58:16.412Z,13.70
2022-09-04T06:59:51.667Z,14.10
2022-09-04T07:01:16.814Z,14.00
2022-09-04T07:02:47.355Z,14.40
2022-09-04T07:03:58.013Z,12.30
2022-09-04T07:05:30.197Z,12.70
2022-09-04T07:07:06.726Z,16.60
2022-09-04T07:08:36.125Z,11.30
2022-09-04T07:09:50.511Z,10.60
2022-09-04T07:11:33.199Z,15.30
2022-09-04T07:12:48.970Z,12.40
2022-09-04T07:14:18.229Z,14.20
2022-09-04T07:15:40.524Z,13.30
2022-09-04T07:17:09.177Z,12.00
2022-09-04T07:18:37.651Z,13.50
2022-09-04T07:20:14.736Z,13.80
2022-09-04T07:21:36.487Z,12.00
2022-09-04T07:23:09.654Z,18.90
2022-09-04T07:24:47.490Z,14.70
2022-09-04T07:26:15.298Z,12.70
2022-09-04T07:28:16.542Z,14.80
2022-09-04T07:29:49.981Z,11.70
2022-09-04T07:31:11.106Z,11.80
2022-09-04T07:32:21.597Z,13.30
2022-09-04T07:33:51.669Z,14.90
2022-09-04T07:35:07.862Z,13.40
2022-09-04T07:36:29.674Z,14.10
2022-09-04T07:38:10.152Z,13.60
2022-09-04T07:39:38.116Z,11.60
2022-09-04T07:40:55.124Z,12.80
2022-09-04T07:42:14.202Z,14.90
2022-09-04T07:43:36.483Z,15.10
2022-09-04T07:45:15.182Z,17.10
2022-09-04T07:46:42.740Z,13.90
2022-09-04T07:48:16.263Z,15.40
2022-09-04T07:49:46.385Z,16.50
2022-09-04T07:51:19.084Z,13.90
2022-09-04T07:52:34.036Z,14.90
2022-09-04T07:53:42.695Z,12.00
2022-09-04T07:55:00.043Z,15.80
2022-09-04T07:56:20.337Z,13.40
2022-09-04T07:57:57.439Z,15.90
2022-09-04T07:59:34.840Z,14.30
2022-09-04T08:01:10.700Z,16.60
2022-09-04T08:02:36.381Z,14.20
2022-09-04T08:03:54.484Z,14.90
2022-09-04T08:05:21.549Z,17.00
2022-09-04T08:06:50.331Z,16.40
2022-09-04T08:08:12.593Z,15.10
2022-09-04T08:09:49.373Z,11.60
2022-09-04T08:11:11.826Z,12.60
2022-09-04T08:12:34.713Z,18.80
2022-09-04T08:14:04.093Z,12.30
2022-09-04T08:15:23.671Z,12.30
2022-09-04T08:17:08.093Z,11.50
2022-09-04T08:18:39.034Z,14.50
2022-09-04T08:20:26.263Z,14.70
2022-09-04T08:21:43.894Z,13.40
2022-09-04T08:22:57.739Z,18.10
2022-09-04T08:24:46.076Z,14.40
2022-09-04T08:25:57.826Z,15.00
2022-09-04T08:27:11.428Z,15.90
2022-09-04T08:28:46.072Z,13.50
2022-09-04T08:29:58.912Z,15.20
2022-09-04T08:31:19.569Z,13.50
2022-09-04T08:32:38.063Z,15.20
2022-09-04T08:34:10.830Z,15.00
2022-09-04T08:35:28.674Z,17.30
2022-09-04T08:36:58.662Z,14.20
2022-09-04T08:38:30.254Z,13.20
2022-09-04T08:39:54.787Z,14.80
2022-09-04T08:41:43.285Z,17.90
2022-09-04T08:43:12.447Z,15.30
2022-09-04T08:44:31.533Z,15.40
2022-09-04T08:46:09.816Z,15.20
2022-09-04T08:47:42.443Z,15.20
2022-09-04T08:49:13.185Z,18.40
2022-09-04T08:50:44.194Z,11.50
2022-09-04T08:52:02.534Z,16.00
2022-09-04T08:53:48.238Z,15.90
2022-09-04T08:55:12.941Z,16.20
2022-09-04T08:56:53.479Z,15.70
2022-09-04T08:58:37.672Z,16.30
2022-09-04T09:00:00.148Z,14.60
2022-09-04T09:01:28.472Z,14.80
2022-09-04T09:03:14.627Z,16.10
2022-09-04T09:04:43.406Z,15.10
2022-09-04T09:06:17.295Z,15.20
2022-09-04T09:08:00.195Z,18.10
2022-09-04T09:09:44.939Z,20.90
2022-09-04T09:11:03.206Z,18.50
2022-09-04T09:12:40.847Z,15.20
2022-09-04T09:14:20.374Z,15.90
2022-09-04T09:15:44.382Z,15.10
2022-09-04T09:17:01.559Z,13.60
2022-09-04T09:18:23.117Z,15.10
2022-09-04T09:19:38.901Z,11.80
2022-09-04T09:21:03.815Z,13.60
2022-09-04T09:22:41.992Z,16.90
2022-09-04T09:24:22.561Z,11.80
2022-09-04T09:25:53.747Z,16.30
2022-09-04T09:27:38.542Z,12.00
2022-09-04T09:29:01.861Z,16.30
2022-09-04T09:30:22.354Z,14.40
2022-09-04T09:31:36.611Z,16.90
2022-09-04T09:33:14.015Z,12.20
2022-09-04T09:34:40.671Z,15.90
2022-09-04T09:36:37.113Z,14.60
2022-09-04T09:38:23.669Z,16.60
2022-09-04T09:39:36.154Z,14.60
2022-09-04T09:41:24.419Z,16.30
2022-09-04T09:42:57.227Z,14.70
2022-09-04T09:44:22.105Z,15.60
2022-09-04T09:45:37.692Z,12.60
2022-09-04T09:47:38.011Z,14.80
2022-09-04T09:49:25.832Z,14.70
2022-09-04T09:50:48.703Z,16.30
2022-09-04T09:52:20.996Z,15.60
2022-09-04T09:54:10.094Z,13.70
2022-09-04T09:55:42.259Z,15.80
2022-09-04T09:57:21.540Z,15.30
2022-09-04T09:58:46.587Z,13.60
2022-09-04T10:00:21.411Z,15.00
2022-09-04T10:01:28.902Z,12.40
2022-09-04T10:02:55.175Z,15.30
2022-09-04T10:04:14.036Z,13.80
2022-09-04T10:05:43.025Z,15.80
2022-09-04T10:07:08.562Z,16.00
2022-09-04T10:08:17.075Z,11.50
2022-09-04T10:09:39.047Z,14.60
2022-09-04T10:11:01.097Z,15.20
2022-09-04T10:12:36.836Z,13.80
2022-09-04T10:14:24.988Z,15.20
2022-09-04T10:15:52.161Z,15.40
2022-09-04T10:17:05.195Z,16.20
2022-09-04T10:18:35.140Z,15.00
2022-09-04T10:20:10.076Z,15.10
2022-09-04T10:21:38.305Z,15.50
2022-09-04T10:23:07.452Z,14.40
2022-09-04T10:24:38.760Z,14.40
2022-09-04T10:26:01.475Z,13.90
2022-09-04T10:27:49.746Z,13.60
2022-09-04T10:29:24.800Z,11.70
2022-09-04T10:30:49.681Z,13.70
2022-09-04T10:32:18.844Z,16.90
2022-09-04T10:34:20.642Z,20.10
2022-09-04T10:35:50.641Z,16.50
2022-09-04T10:37:09.743Z,11.80
2022-09-04T10:39:13.737Z,14.10
2022-09-04T10:40:55.761Z,13.90
2022-09-04T10:42:45.610Z,17.20
2022-09-04T10:44:00.906Z,11.20
2022-09-04T10:45:18.952Z,15.80
2022-09-04T10:46:38.842Z,16.20
2022-09-04T10:47:56.588Z,14.10
2022-09-04T10:49:31.931Z,12.50
2022-09-04T10:51:12.138Z,20.70
2022-09-04T10:52:34.353Z,17.80
2022-09-04T10:54:08.289Z,16.60
2022-09-04T10:55:32.799Z,16.30
2022-09-04T10:57:07.255Z,19.10
2022-09-04T10:58:51.484Z,18.20
2022-09-04T11:00:18.636Z,13.70
2022-09-04T11:01:56.658Z,16.70
2022-09-04T11:03:29.338Z,15.10
2022-09-04T11:04:39.664Z,18.00
2022-09-04T11:06:05.936Z,14.20
2022-09-04T11:07:19.489Z,15.80
2022-09-04T11:08:37.775Z,14.30
2022-09-04T11:10:03.140Z,16.40
2022-09-04T11:11:16.242Z,14.60
2022-09-04T11:12:41.686Z,15.40
2022-09-04T11:13:51.837Z,12.80
2022-09-04T11:15:02.867Z,13.70
2022-09-04T11:16:12.123Z,13.30
2022-09-04T11:17:37.425Z,14.80
2022-09-04T11:18:54.968Z,15.80
2022-09-04T11:20:26.438Z,16.20
2022-09-04T11:22:00.550Z,16.30
2022-09-04T11:23:23.387Z,13.10
2022-09-04T11:24:39.673Z,12.40
2022-09-04T11:26:16.981Z,13.00
2022-09-04T11:27:50.779Z,16.60
2022-09-04T11:29:19.454Z,16.70
2022-09-04T11:31:03.251Z,16.80
2022-09-04T11:32:29.418Z,18.30
2022-09-04T11:33:41.209Z,15.30
2022-09-04T11:35:01.897Z,14.60
2022-09-04T11:36:38.323Z,15.90
2022-09-04T11:37:57.995Z,16.20
2022-09-04T11:39:27.571Z,12.10
2022-09-04T11:41:05.340Z,13.40
2022-09-04T11:42:12.825Z,15.40
2022-09-04T11:43:34.195Z,14.70
2022-09-04T11:44:51.297Z,14.80
2022-09-04T11:46:35.301Z,12.10
2022-09-04T11:47:49.892Z,11.20
2022-09-04T11:49:24.453Z,13.80
2022-09-04T11:51:09.663Z,15.70
2022-09-04T11:52:48.315Z,17.40
2022-09-04T11:54:47.500Z,15.50
2022-09-04T11:56:15.181Z,13.60
2022-09-04T11:58:06.696Z,14.30
2022-09-04T11:59:32.690Z,15.30
2022-09-04T12:00:52.755Z,12.20
2022-09-04T12:02:23.572Z,16.60
2022-09-04T12:03:52.410Z,14.20
2022-09-04T12:05:41.235Z,13.60
2022-09-04T12:06:52.727Z,15.30
2022-09-04T12:08:18.031Z,14.10
2022-09-04T12:09:34.933Z,13.80
2022-09-04T12:10:45.632Z,16.40
2022-09-04T12:12:15.951Z,12.60
2022-09-04T12:14:03.645Z,12.00
2022-09-04T12:15:15.109Z,14.60
2022-09-04T12:16:26.082Z,15.80
2022-09-04T12:17:40.715Z,17.00
2022-09-04T12:19:07.439Z,16.30
2022-09-04T12:20:35.642Z,12.30
2022-09-04T12:22:05.110Z,15.10
2022-09-04T12:23:15.812Z,15.30
2022-09-04T12:24:36.559Z,20.00
2022-09-04T12:25:59.236Z,22.00
2022-09-04T12:27:12.876Z,17.40
2022-09-04T12:28:53.397Z,23.20
2022-09-04T12:30:11.706Z,17.40
2022-09-04T12:31:41.658Z,12.60
2022-09-04T12:33:14.067Z,18.80
2022-09-04T12:34:39.642Z,17.40
2022-09-04T12:36:16.018Z,17.80
2022-09-04T12:37:45.141Z,14.10
2022-09-04T12:39:11.633Z,20.90
2022-09-04T12:41:13.884Z,15.60
2022-09-04T12:42:37.744Z,20.10
2022-09-04T12:43:56.035Z,22.40
2022-09-04T12:45:40.042Z,18.10
2022-09-04T12:46:52.182Z,12.80
2022-09-04T12:48:12.737Z,17.20
2022-09-04T12:49:41.134Z,19.00
2022-09-04T12:51:05.298Z,18.10
2022-09-04T12:52:24.057Z,19.50
2022-09-04T12:53:52.983Z,15.10
2022-09-04T12:55:05.393Z,16.70
2022-09-04T12:56:43.855Z,15.40
2022-09-04T12:58:02.190Z,16.10
2022-09-04T12:59:16.149Z,14.40
2022-09-04T13:00:31.714Z,12.30
2022-09-04T13:02:12.757Z,13.10
2022-09-04T13:04:00.572Z,16.10
2022-09-04T13:05:18.254Z,17.00
2022-09-04T13:07:00.348Z,16.20
2022-09-04T13:08:29.559Z,15.70
2022-09-04T13:09:56.758Z,18.00
2022-09-04T13:11:21.265Z,18.50
2022-09-04T13:12:31.211Z,22.70
2022-09-04T13:13:52.583Z,16.60
2022-09-04T13:15:04.231Z,16.80
2022-09-04T13:16:17.931Z,20.20
2022-09-04T13:17:54.601Z,21.20
2022-09-04T13:19:55.035Z,18.90
2022-09-04T13:21:18.041Z,22.30
2022-09-04T13:22:49.551Z,18.50
2022-09-04T13:24:12.762Z,20.40
2022-09-04T13:25:32.797Z,22.60
2022-09-04T13:27:10.041Z,19.70
2022-09-04T13:28:47.638Z,19.20
2022-09-04T13:30:25.734Z,20.70
2022-09-04T13:31:57.856Z,16.90
2022-09-04T13:33:15.438Z,18.90
2022-09-04T13:34:44.786Z,18.10
2022-09-04T13:35:55.001Z,17.50
2022-09-04T13:37:17.434Z,24.40
2022-09-04T13:39:12.769Z,22.00
2022-09-04T13:40:37.969Z,16.50
2022-09-04T13:42:28.164Z,16.20
2022-09-04T13:44:19.929Z,16.80
2022-09-04T13:45:57.545Z,18.40
2022-09-04T13:47:14.386Z,17.50
2022-09-04T13:48:44.992Z,15.20
2022-09-04T13:50:11.721Z,17.70
2022-09-04T13:51:26.460Z,17.50
2022-09-04T13:52:40.815Z,16.90
2022-09-04T13:54:22.111Z,16.70
2022-09-04T13:55:39.512Z,15.90
2022-09-04T13:57:07.451Z,20.20
2022-09-04T13:58:32.801Z,18.50
2022-09-04T13:59:40.746Z,16.90
2022-09-04T14:00:58.550Z,13.90
2022-09-04T14:02:11.235Z,13.00
2022-09-04T14:03:38.614Z,14.80
2022-09-04T14:04:50.035Z,19.60
2022-09-04T14:05:58.126Z,12.90
2022-09-04T14:07:20.287Z,12.00
2022-09-04T14:08:31.721Z,14.80
2022-09-04T14:09:41.912Z,14.20
2022-09-04T14:11:01.259Z,15.90
2022-09-04T14:12:23.223Z,17.30
2022-09-04T14:14:05.415Z,14.70
2022-09-04T14:15:15.459Z,15.40
2022-09-04T14:16:25.499Z,15.50
2022-09-04T14:17:40.596Z,13.00
2022-09-04T14:19:15.900Z,15.50
2022-09-04T14:20:25.218Z,15.60
2022-09-04T14:21:42.609Z,15.40
2022-09-04T14:23:24.097Z,13.60
2022-09-04T14:24:43.548Z,15.10
2022-09-04T14:26:28.352Z,14.70
2022-09-04T14:27:45.937Z,14.10
2022-09-04T14:29:05.515Z,19.00
2022-09-04T14:30:19.147Z,14.20
2022-09-04T14:31:40.613Z,14.00
2022-09-04T14:33:24.496Z,12.20
2022-09-04T14:34:46.836Z,15.40
2022-09-04T14:36:12.946Z,15.90
2022-09-04T14:37:57.778Z,15.80
2022-09-04T14:39:15.875Z,15.40
2022-09-04T14:40:45.215Z,13.60
2022-09-04T14:42:01.114Z,14.70
2022-09-04T14:43:41.361Z,13.70
2022-09-04T14:45:14.527Z,15.20
2022-09-04T14:46:30.291Z,13.20
2022-09-04T14:47:38.999Z,14.80
2022-09-04T14:48:49.858Z,14.20
2022-09-04T14:49:58.784Z,12.80
2022-09-04T14:51:14.720Z,15.70
2022-09-04T14:52:30.533Z,16.90
2022-09-04T14:53:37.468Z,13.50
2022-09-04T14:54:47.496Z,14.30
2022-09-04T14:56:12.651Z,17.20
2022-09-04T14:57:41.448Z,17.10
2022-09-04T14:58:51.132Z,13.50
2022-09-04T15:00:12.126Z,14.60
2022-09-04T15:01:26.039Z,12.90
2022-09-04T15:03:03.908Z,16.30
2022-09-04T15:04:25.226Z,16.90
2022-09-04T15:05:41.041Z,14.50
2022-09-04T15:07:11.186Z,12.80
2022-09-04T15:08:40.173Z,14.30
2022-09-04T15:09:51.260Z,15.30
2022-09-04T15:11:04.950Z,14.70
2022-09-04T15:12:25.327Z,13.80
2022-09-04T15:13:35.376Z,14.40
2022-09-04T15:14:44.070Z,12.30
2022-09-04T15:15:55.794Z,15.80
2022-09-04T15:17:10.490Z,15.20
2022-09-04T15:18:25.175Z,14.50
2022-09-04T15:19:56.565Z,17.30
2022-09-04T15:21:21.379Z,16.60
2022-09-04T15:22:39.205Z,14.40
2022-09-04T15:24:06.406Z,13.30
2022-09-04T15:25:20.593Z,13.30
2022-09-04T15:26:48.732Z,13.80
2022-09-04T15:28:08.711Z,12.40
2022-09-04T15:29:57.116Z,13.30
2022-09-04T15:31:20.104Z,13.60
2022-09-04T15:32:29.813Z,13.60
2022-09-04T15:33:38.638Z,13.50
2022-09-04T15:34:46.595Z,13.30
2022-09-04T15:36:09.767Z,12.10
2022-09-04T15:37:28.457Z,13.40
2022-09-04T15:38:37.929Z,14.60
2022-09-04T15:40:04.627Z,13.30
2022-09-04T15:41:25.615Z,10.40
2022-09-04T15:42:37.334Z,13.10
2022-09-04T15:44:30.162Z,10.10
2022-09-04T15:45:49.426Z,10.30
2022-09-04T15:47:24.695Z,10.30
2022-09-04T15:48:55.684Z,10.60
2022-09-04T15:50:12.170Z,9.60
2022-09-04T15:51:50.924Z,8.70
2022-09-04T15:53:14.756Z,8.60
2022-09-04T15:54:42.821Z,10.80
2022-09-04T15:55:53.818Z,13.60
2022-09-04T15:57:29.271Z,12.60
2022-09-04T15:58:44.516Z,11.10
2022-09-04T15:59:58.258Z,11.20
2022-09-04T16:01:10.535Z,11.60
2022-09-04T16:02:26.361Z,10.20
2022-09-04T16:04:15.553Z,10.40
2022-09-04T16:05:45.349Z,10.50
2022-09-04T16:07:01.102Z,11.50
2022-09-04T16:08:22.971Z,10.50
2022-09-04T16:09:51.363Z,11.20
2022-09-04T16:11:23.387Z,10.00
2022-09-04T16:12:55.890Z,10.80
2022-09-04T16:14:24.153Z,11.50
2022-09-04T16:15:41.437Z,10.80
2022-09-04T16:17:03.404Z,12.00
2022-09-04T16:18:51.988Z,13.50
2022-09-04T16:20:19.664Z,10.90
2022-09-04T16:21:59.116Z,8.80
2022-09-04T16:23:13.507Z,10.80
2022-09-04T16:24:37.173Z,15.20
2022-09-04T16:25:51.863Z,8.50
2022-09-04T16:27:00.249Z,9.80
2022-09-04T16:28:39.360Z,9.30
2022-09-04T16:30:00.298Z,11.20
2022-09-04T16:31:15.610Z,12.30
2022-09-04T16:32:24.331Z,9.90
2022-09-04T16:33:40.453Z,7.70
2022-09-04T16:34:52.213Z,8.60
2022-09-04T16:36:26.146Z,8.20
2022-09-04T16:37:54.041Z,7.60
2022-09-04T16:39:06.920Z,8.10
2022-09-04T16:40:22.122Z,8.30
2022-09-04T16:41:43.069Z,10.70
2022-09-04T16:43:24.223Z,9.80
2022-09-04T16:44:38.871Z,8.10
2022-09-04T16:45:51.996Z,6.90
2022-09-04T16:47:25.903Z,7.20
2022-09-04T16:48:55.103Z,9.90
2022-09-04T16:50:14.892Z,10.80
2022-09-04T16:51:41.924Z,7.90
2022-09-04T16:53:13.409Z,8.60
2022-09-04T16:54:39.118Z,10.40
2022-09-04T16:56:01.092Z,11.60
2022-09-04T16:57:19.305Z,10.40
2022-09-04T16:58:56.682Z,9.40
2022-09-04T17:00:13.930Z,8.40
2022-09-04T17:01:30.222Z,8.50
2022-09-04T17:02:43.224Z,9.00
2022-09-04T17:04:39.792Z,6.60
2022-09-04T17:05:57.066Z,9.50
2022-09-04T17:07:16.347Z,8.80
2022-09-04T17:08:42.594Z,9.80
2022-09-04T17:10:26.834Z,8.60
2022-09-04T17:11:55.536Z,11.90
2022-09-04T17:13:08.185Z,7.70
2022-09-04T17:14:22.958Z,8.90
2022-09-04T17:15:53.475Z,7.40
2022-09-04T17:17:30.739Z,10.20
2022-09-04T17:18:43.815Z,9.90
2022-09-04T17:20:07.306Z,11.00
2022-09-04T17:25:40.627Z,8.30
2022-09-04T17:29:05.116Z,9.30
2022-09-04T17:29:09.934Z,9.00
2022-09-04T17:29:11.749Z,8.50
2022-09-04T17:29:24.442Z,7.80
2022-09-04T17:30:28.836Z,10.40
2022-09-04T17:31:53.502Z,8.30
2022-09-04T17:36:56.777Z,7.40
2022-09-04T17:40:43.467Z,10.40
2022-09-04T17:40:51.298Z,8.60
2022-09-04T17:40:51.299Z,7.50
2022-09-04T17:40:54.279Z,10.60
2022-09-04T17:41:39.422Z,11.00
2022-09-04T17:43:14.819Z,8.70
2022-09-04T17:44:41.255Z,7.80
2022-09-04T17:46:10.340Z,6.40
2022-09-04T17:47:20.416Z,7.00
2022-09-04T17:48:41.224Z,8.40
2022-09-04T17:49:50.734Z,5.70
2022-09-04T17:51:01.711Z,8.20
2022-09-04T17:52:09.952Z,5.60
2022-09-04T17:53:33.983Z,6.90
2022-09-04T17:54:43.112Z,7.00
2022-09-04T17:56:44.684Z,7.80
2022-09-04T17:58:02.651Z,6.50
2022-09-04T17:59:28.685Z,6.10
2022-09-04T18:01:15.286Z,10.80
2022-09-04T18:02:27.116Z,8.10
2022-09-04T18:04:02.880Z,8.00
2022-09-04T18:05:28.675Z,7.00
2022-09-04T18:06:52.494Z,5.60
2022-09-04T18:08:13.143Z,8.90
2022-09-04T18:09:26.800Z,6.30
2022-09-04T18:10:55.839Z,6.40
2022-09-04T18:12:26.121Z,7.60
2022-09-04T18:14:03.853Z,6.00
2022-09-04T18:15:50.327Z,6.50
2022-09-04T18:17:12.831Z,6.70
2022-09-04T18:18:26.813Z,6.50
2022-09-04T18:19:38.345Z,7.60
2022-09-04T18:37:18.390Z,9.20
2022-09-04T18:50:38.687Z,6.50
2022-09-04T18:50:39.226Z,7.20
2022-09-04T18:50:50.076Z,6.30
2022-09-04T18:52:11.513Z,5.70
2022-09-04T18:54:19.711Z,5.20
2022-09-04T18:56:00.510Z,5.90
2022-09-04T18:57:48.614Z,6.90
2022-09-04T18:59:22.897Z,6.40
2022-09-04T19:00:50.113Z,6.40
2022-09-04T19:02:16.739Z,5.80
2022-09-04T19:04:18.607Z,7.20
2022-09-04T19:05:44.663Z,7.00
2022-09-04T19:07:09.435Z,9.10
2022-09-04T19:08:25.252Z,5.20
2022-09-04T19:09:55.849Z,6.50
2022-09-04T19:11:20.669Z,7.30
2022-09-04T19:12:47.061Z,6.90
2022-09-04T19:14:18.480Z,8.60
2022-09-04T19:15:36.577Z,5.90
2022-09-04T19:16:58.409Z,5.60
2022-09-04T19:18:08.639Z,6.00
2022-09-04T19:19:20.027Z,5.60
2022-09-04T19:20:36.899Z,7.60
2022-09-04T19:22:12.028Z,4.80
2022-09-04T19:23:33.767Z,4.70
2022-09-04T19:24:44.519Z,6.50
2022-09-04T19:25:54.768Z,5.40
2022-09-04T19:27:27.565Z,5.30
2022-09-04T19:28:53.075Z,6.20
2022-09-04T19:30:03.141Z,5.50
2022-09-04T19:31:40.525Z,6.80
2022-09-04T19:33:12.289Z,8.00
2022-09-04T19:40:51.813Z,4.50
2022-09-04T19:57:45.505Z,4.50
2022-09-04T20:02:03.047Z,4.40
2022-09-04T20:10:32.662Z,5.50
2022-09-04T20:14:57.100Z,4.90
2022-09-04T20:16:55.581Z,4.80
2022-09-04T20:29:18.541Z,4.40
2022-09-04T20:31:36.023Z,5.10
2022-09-04T20:34:09.573Z,5.10
2022-09-04T20:41:45.176Z,6.10
2022-09-04T20:43:42.459Z,4.50
2022-09-04T20:51:04.941Z,5.20
2022-09-04T20:53:05.902Z,4.60
2022-09-04T21:00:59.555Z,5.10
2022-09-04T21:03:20.215Z,5.60
2022-09-04T21:16:46.151Z,5.60
2022-09-04T21:19:12.912Z,5.40
2022-09-04T21:21:10.917Z,5.80
2022-09-04T21:23:17.116Z,5.90
2022-09-04T21:25:18.621Z,5.70
2022-09-04T21:27:40.821Z,4.80
2022-09-04T21:29:22.858Z,5.60
2022-09-04T21:31:10.402Z,5.10
2022-09-04T21:33:31.377Z,6.30
2022-09-04T21:35:48.820Z,6.40
2022-09-04T21:52:44.596Z,5.60
2022-09-04T21:58:02.216Z,6.10
2022-09-04T22:13:43.094Z,9.70
2022-09-04T22:19:16.440Z,7.70
2022-09-04T22:21:11.603Z,10.20
2022-09-04T22:23:26.782Z,7.70
2022-09-04T22:35:51.722Z,8.30
2022-09-04T22:38:37.982Z,9.80
2022-09-04T22:40:59.023Z,9.90
2022-09-04T22:45:51.581Z,10.00
2022-09-04T22:47:59.123Z,7.40
2022-09-04T22:49:58.843Z,7.60
2022-09-04T22:52:10.165Z,9.20
2022-09-04T22:55:29.288Z,8.40
2022-09-04T23:00:52.060Z,8.50
2022-09-04T23:13:51.186Z,22.20
2022-09-04T23:15:48.667Z,14.60
2022-09-04T23:18:35.024Z,12.40
2022-09-04T23:26:37.155Z,7.90
2022-09-04T23:26:58.541Z,8.80
2022-09-04T23:29:47.860Z,11.10
2022-09-04T23:31:41.041Z,12.90
2022-09-04T23:36:38.967Z,10.10
2022-09-04T23:39:23.123Z,7.90
2022-09-04T23:43:24.530Z,11.00
2022-09-04T23:45:36.747Z,11.20
2022-09-04T23:47:48.652Z,11.40
2022-09-04T23:52:28.502Z,7.30
2022-09-04T23:54:34.580Z,10.60
2022-09-04T23:56:37.380Z,7.80
